createdAt,value
2022-08-10T00:01:53.305Z,2.87
2022-08-10T00:04:22.234Z,2.07
2022-08-10T00:06:50.246Z,2.20
2022-08-10T00:09:17.257Z,2.70
2022-08-10T00:11:44.253Z,2.13
2022-08-10T00:14:11.281Z,2.30
2022-08-10T00:16:38.298Z,2.33
2022-08-10T00:19:05.305Z,2.30
2022-08-10T00:21:32.320Z,2.30
2022-08-10T00:23:59.350Z,2.37
2022-08-10T00:26:26.362Z,2.53
2022-08-10T00:29:13.372Z,2.27
2022-08-10T00:31:58.792Z,1.97
2022-08-10T00:34:26.964Z,1.90
2022-08-10T00:36:53.987Z,2.17
2022-08-10T00:39:21.054Z,2.03
2022-08-10T00:42:07.129Z,2.70
2022-08-10T00:44:35.812Z,2.17
2022-08-10T00:47:02.984Z,2.03
2022-08-10T00:49:30.061Z,2.50
2022-08-10T00:51:57.125Z,2.10
2022-08-10T00:54:25.170Z,2.27
2022-08-10T00:57:16.309Z,2.13
2022-08-10T00:59:58.955Z,2.40
2022-08-10T01:02:26.792Z,2.27
2022-08-10T01:04:59.478Z,2.80
2022-08-10T01:07:40.070Z,2.47
2022-08-10T01:10:07.080Z,2.30
2022-08-10T01:12:40.894Z,2.57
2022-08-10T01:15:27.240Z,3.00
2022-08-10T01:17:58.985Z,2.83
2022-08-10T01:20:30.951Z,2.80
2022-08-10T01:23:04.309Z,3.00
2022-08-10T01:26:11.442Z,3.20
2022-08-10T01:28:49.150Z,2.60
2022-08-10T01:31:18.114Z,2.70
2022-08-10T01:33:58.366Z,2.53
2022-08-10T01:36:32.158Z,2.90
2022-08-10T01:39:00.874Z,2.70
2022-08-10T01:41:45.505Z,3.00
2022-08-10T01:44:20.066Z,2.80
2022-08-10T01:46:49.041Z,3.17
2022-08-10T01:49:21.653Z,2.80
2022-08-10T01:51:53.309Z,2.93
2022-08-10T01:54:22.232Z,2.77
2022-08-10T01:56:51.134Z,2.53
2022-08-10T01:59:24.039Z,3.20
2022-08-10T02:01:52.687Z,2.90
2022-08-10T02:04:21.507Z,2.73
2022-08-10T02:06:50.554Z,2.80
2022-08-10T02:09:22.776Z,2.87
2022-08-10T02:11:55.834Z,2.87
2022-08-10T02:14:42.776Z,3.13
2022-08-10T02:18:00.637Z,2.60
2022-08-10T02:20:09.501Z,2.93
2022-08-10T02:22:39.019Z,3.00
2022-08-10T02:25:07.974Z,2.97
2022-08-10T02:27:35.275Z,2.40
2022-08-10T02:30:03.298Z,3.03
2022-08-10T02:32:36.261Z,2.63
2022-08-10T02:35:04.812Z,2.87
2022-08-10T02:37:32.196Z,2.90
2022-08-10T02:39:59.260Z,2.50
2022-08-10T02:45:22.444Z,2.83
2022-08-10T02:45:31.169Z,2.60
2022-08-10T02:48:16.104Z,2.80
2022-08-10T02:50:43.967Z,3.20
2022-08-10T02:53:54.915Z,2.90
2022-08-10T02:56:11.687Z,2.90
2022-08-10T02:58:40.290Z,2.90
2022-08-10T03:01:12.161Z,2.53
2022-08-10T03:03:47.893Z,2.90
2022-08-10T03:06:16.702Z,2.83
2022-08-10T03:08:45.042Z,2.80
2022-08-10T03:11:18.609Z,3.03
2022-08-10T03:14:07.234Z,2.93
2022-08-10T03:16:34.708Z,3.27
2022-08-10T03:19:03.471Z,3.37
2022-08-10T03:21:31.164Z,3.07
2022-08-10T03:24:02.723Z,2.77
2022-08-10T03:26:50.657Z,3.03
2022-08-10T03:29:21.217Z,2.97
2022-08-10T03:31:48.810Z,3.27
2022-08-10T03:34:32.612Z,2.80
2022-08-10T03:37:00.785Z,2.97
2022-08-10T03:39:28.457Z,2.60
2022-08-10T03:41:57.338Z,3.17
2022-08-10T03:44:29.698Z,2.87
2022-08-10T03:47:00.220Z,3.30
2022-08-10T03:49:28.307Z,3.03
2022-08-10T03:51:55.982Z,3.23
2022-08-10T03:54:24.005Z,3.40
2022-08-10T03:56:51.181Z,3.60
2022-08-10T03:59:18.349Z,2.87
2022-08-10T04:02:52.007Z,3.03
2022-08-10T04:04:34.132Z,3.20
2022-08-10T04:07:01.210Z,2.67
2022-08-10T04:09:54.068Z,3.00
2022-08-10T04:12:20.536Z,3.30
2022-08-10T04:14:51.458Z,3.47
2022-08-10T04:18:03.876Z,2.73
2022-08-10T04:20:11.609Z,3.30
2022-08-10T04:22:39.697Z,2.90
2022-08-10T04:25:08.344Z,3.90
2022-08-10T04:27:35.158Z,3.20
2022-08-10T04:30:01.780Z,3.33
2022-08-10T04:32:31.314Z,3.57
2022-08-10T04:34:58.863Z,3.20
2022-08-10T04:37:26.450Z,3.03
2022-08-10T04:39:53.390Z,3.10
2022-08-10T04:42:20.222Z,3.43
2022-08-10T04:44:47.167Z,3.40
2022-08-10T04:47:14.011Z,3.50
2022-08-10T04:49:53.854Z,3.50
2022-08-10T04:52:22.377Z,3.80
2022-08-10T04:54:51.954Z,3.33
2022-08-10T04:57:18.533Z,3.60
2022-08-10T04:59:45.071Z,3.50
2022-08-10T05:02:29.006Z,3.73
2022-08-10T05:04:58.204Z,3.40
2022-08-10T05:07:25.018Z,3.50
2022-08-10T05:10:03.081Z,4.00
2022-08-10T05:12:38.520Z,3.80
2022-08-10T05:15:08.561Z,3.57
2022-08-10T05:17:36.121Z,3.77
2022-08-10T05:20:06.759Z,3.43
2022-08-10T05:22:40.734Z,3.93
2022-08-10T05:25:15.891Z,3.60
2022-08-10T05:27:43.638Z,3.67
2022-08-10T05:30:13.614Z,3.90
2022-08-10T05:32:56.657Z,3.97
2022-08-10T05:35:26.816Z,3.60
2022-08-10T05:38:12.999Z,3.33
2022-08-10T05:40:46.651Z,3.67
2022-08-10T05:43:17.109Z,4.17
2022-08-10T05:46:18.234Z,3.80
2022-08-10T05:48:41.656Z,3.73
2022-08-10T05:51:19.202Z,3.57
2022-08-10T05:54:03.363Z,3.60
2022-08-10T05:56:56.015Z,2.93
2022-08-10T06:00:35.616Z,3.43
2022-08-10T06:02:31.156Z,3.20
2022-08-10T06:05:04.914Z,3.37
2022-08-10T06:07:31.979Z,2.80
2022-08-10T06:10:00.741Z,2.63
2022-08-10T06:12:30.575Z,3.10
2022-08-10T06:15:06.008Z,4.07
2022-08-10T06:17:38.211Z,3.00
2022-08-10T06:20:05.545Z,2.70
2022-08-10T06:22:33.266Z,2.47
2022-08-10T06:25:32.349Z,2.83
2022-08-10T06:27:49.563Z,2.90
2022-08-10T06:30:20.154Z,2.83
2022-08-10T06:32:49.019Z,2.67
2022-08-10T06:35:16.994Z,3.10
2022-08-10T06:37:50.861Z,2.93
2022-08-10T06:40:19.096Z,2.50
2022-08-10T06:42:47.820Z,2.57
2022-08-10T06:45:19.653Z,3.00
2022-08-10T06:47:51.974Z,2.40
2022-08-10T06:50:44.961Z,2.53
2022-08-10T06:53:20.175Z,2.60
2022-08-10T06:55:56.757Z,2.50
2022-08-10T06:58:26.994Z,2.40
2022-08-10T07:00:58.045Z,2.43
2022-08-10T07:03:34.289Z,2.53
2022-08-10T07:06:02.642Z,2.40
2022-08-10T07:08:34.253Z,2.43
2022-08-10T07:11:02.495Z,2.53
2022-08-10T07:14:16.918Z,2.77
2022-08-10T07:16:21.237Z,2.57
2022-08-10T07:18:50.445Z,2.20
2022-08-10T07:22:00.191Z,2.50
2022-08-10T07:25:09.904Z,2.43
2022-08-10T07:27:58.921Z,2.10
2022-08-10T07:30:28.292Z,2.40
2022-08-10T07:32:55.916Z,2.13
2022-08-10T07:35:23.565Z,2.70
2022-08-10T07:37:52.328Z,2.47
2022-08-10T07:40:20.536Z,2.30
2022-08-10T07:42:54.402Z,2.17
2022-08-10T07:45:21.563Z,2.27
2022-08-10T07:47:54.311Z,2.10
2022-08-10T07:50:22.914Z,2.30
2022-08-10T07:52:50.378Z,2.70
2022-08-10T07:55:19.050Z,2.33
2022-08-10T07:58:06.606Z,2.20
2022-08-10T08:00:33.917Z,2.40
2022-08-10T08:03:02.947Z,2.10
2022-08-10T08:05:58.935Z,2.30
2022-08-10T08:08:17.695Z,2.33
2022-08-10T08:10:45.954Z,2.20
2022-08-10T08:13:13.440Z,2.30
2022-08-10T08:16:20.730Z,2.37
2022-08-10T08:18:31.928Z,2.50
2022-08-10T08:24:02.296Z,2.23
2022-08-10T08:24:04.651Z,2.57
2022-08-10T08:26:39.402Z,2.40
2022-08-10T08:29:09.334Z,2.70
2022-08-10T08:31:54.284Z,2.20
2022-08-10T08:34:46.606Z,2.30
2022-08-10T08:38:33.911Z,2.00
2022-08-10T08:40:26.930Z,2.20
2022-08-10T08:43:15.500Z,2.30
2022-08-10T08:46:01.648Z,2.00
2022-08-10T08:48:46.829Z,2.27
2022-08-10T08:52:06.971Z,1.93
2022-08-10T08:54:20.357Z,2.63
2022-08-10T08:56:54.594Z,2.30
2022-08-10T08:59:25.948Z,2.10
2022-08-10T09:01:53.039Z,2.30
2022-08-10T09:04:22.134Z,2.57
2022-08-10T09:07:59.196Z,2.17
2022-08-10T09:10:17.721Z,2.00
2022-08-10T09:12:49.826Z,1.93
2022-08-10T09:15:40.867Z,2.20
2022-08-10T09:18:07.413Z,2.07
2022-08-10T09:20:35.279Z,2.00
2022-08-10T09:23:08.858Z,2.40
2022-08-10T09:25:37.145Z,2.25
2022-08-10T09:28:12.497Z,2.03
2022-08-10T09:31:03.672Z,1.90
2022-08-10T09:36:26.999Z,2.10
2022-08-10T09:36:43.366Z,2.17
2022-08-10T09:40:56.092Z,2.40
2022-08-10T09:42:23.577Z,2.10
2022-08-10T09:44:57.165Z,2.00
2022-08-10T09:48:01.930Z,1.90
2022-08-10T09:54:04.395Z,2.22
2022-08-10T09:56:40.425Z,1.90
2022-08-10T09:59:56.573Z,1.90
2022-08-10T10:02:06.354Z,1.95
2022-08-10T10:04:39.697Z,2.10
2022-08-10T10:07:07.532Z,1.83
2022-08-10T10:09:39.842Z,1.83
2022-08-10T10:12:19.875Z,2.08
2022-08-10T10:15:24.812Z,2.13
2022-08-10T10:18:11.396Z,2.05
2022-08-10T10:20:50.578Z,1.90
2022-08-10T10:23:29.349Z,2.03
2022-08-10T10:26:20.218Z,2.00
2022-08-10T10:29:56.290Z,1.77
2022-08-10T10:32:22.953Z,1.90
2022-08-10T10:35:24.250Z,2.00
2022-08-10T10:38:01.201Z,2.33
2022-08-10T10:40:54.542Z,1.92
2022-08-10T10:44:00.642Z,2.03
2022-08-10T10:46:30.985Z,2.08
2022-08-10T10:49:22.728Z,2.20
2022-08-10T10:52:03.054Z,2.13
2022-08-10T10:54:30.988Z,2.05
2022-08-10T10:57:16.812Z,2.00
2022-08-10T10:59:55.257Z,2.00
2022-08-10T11:02:32.454Z,1.70
2022-08-10T11:05:02.281Z,2.00
2022-08-10T11:07:38.906Z,1.92
2022-08-10T11:10:32.978Z,2.17
2022-08-10T11:14:25.089Z,2.10
2022-08-10T11:16:06.078Z,1.92
2022-08-10T11:18:35.827Z,1.90
2022-08-10T11:21:28.312Z,1.92
2022-08-10T11:24:47.459Z,1.98
2022-08-10T11:27:08.962Z,1.77
2022-08-10T11:29:53.474Z,1.98
2022-08-10T11:32:25.249Z,1.55
2022-08-10T11:35:11.793Z,1.70
2022-08-10T11:38:31.397Z,1.90
2022-08-10T11:40:36.303Z,2.03
2022-08-10T11:43:14.212Z,1.70
2022-08-10T11:45:51.961Z,2.13
2022-08-10T11:48:53.102Z,1.90
2022-08-10T11:51:38.965Z,1.83
2022-08-10T11:54:08.373Z,2.25
2022-08-10T11:56:48.859Z,1.90
2022-08-10T11:59:36.253Z,1.80
2022-08-10T12:02:04.540Z,2.00
2022-08-10T12:04:32.248Z,1.90
2022-08-10T12:07:00.481Z,1.88
2022-08-10T12:10:11.243Z,1.80
2022-08-10T12:12:15.920Z,1.60
2022-08-10T12:15:03.301Z,1.83
2022-08-10T12:17:36.713Z,2.03
2022-08-10T12:20:09.059Z,1.85
2022-08-10T12:22:51.197Z,2.00
2022-08-10T12:25:56.164Z,1.88
2022-08-10T12:28:49.562Z,1.98
2022-08-10T12:31:17.214Z,2.35
2022-08-10T12:34:01.511Z,1.90
2022-08-10T12:36:34.069Z,1.90
2022-08-10T12:39:17.049Z,2.10
2022-08-10T12:41:50.373Z,2.10
2022-08-10T12:44:41.485Z,2.13
2022-08-10T12:47:27.358Z,1.83
2022-08-10T12:50:29.301Z,1.85
2022-08-10T12:53:18.759Z,1.85
2022-08-10T12:55:46.741Z,1.92
2022-08-10T12:58:57.355Z,2.10
2022-08-10T13:01:16.178Z,1.73
2022-08-10T13:04:21.297Z,1.80
2022-08-10T13:06:34.632Z,1.58
2022-08-10T13:09:14.313Z,2.00
2022-08-10T13:12:44.565Z,1.90
2022-08-10T13:14:42.831Z,2.00
2022-08-10T13:17:10.054Z,2.22
2022-08-10T13:19:55.668Z,2.40
2022-08-10T13:22:26.184Z,2.10
2022-08-10T13:24:56.150Z,2.00
2022-08-10T13:28:00.806Z,1.80
2022-08-10T13:30:37.251Z,1.80
2022-08-10T13:33:05.429Z,1.80
2022-08-10T13:35:33.013Z,1.92
2022-08-10T13:38:01.823Z,1.98
2022-08-10T13:40:29.454Z,1.70
2022-08-10T13:42:59.499Z,2.40
2022-08-10T13:45:27.248Z,2.10
2022-08-10T13:47:56.857Z,2.25
2022-08-10T13:50:33.359Z,1.98
2022-08-10T13:53:03.671Z,2.10
2022-08-10T13:55:53.616Z,1.75
2022-08-10T13:58:22.952Z,1.90
2022-08-10T14:00:50.281Z,2.03
2022-08-10T14:03:17.754Z,1.77
2022-08-10T14:05:48.377Z,1.88
2022-08-10T14:08:17.911Z,2.38
2022-08-10T14:11:08.595Z,1.92
2022-08-10T14:13:36.581Z,1.70
2022-08-10T14:16:06.848Z,1.88
2022-08-10T14:18:34.987Z,2.00
2022-08-10T14:21:04.754Z,2.03
2022-08-10T14:23:32.368Z,1.80
2022-08-10T14:26:04.116Z,1.98
2022-08-10T14:28:35.403Z,2.08
2022-08-10T14:31:06.657Z,1.80
2022-08-10T14:33:36.142Z,1.98
2022-08-10T14:36:19.563Z,1.70
2022-08-10T14:38:54.553Z,1.63
2022-08-10T14:42:01.562Z,1.80
2022-08-10T14:44:16.922Z,2.00
2022-08-10T14:46:45.923Z,1.92
2022-08-10T14:49:26.555Z,2.10
2022-08-10T14:51:58.742Z,2.10
2022-08-10T14:54:29.587Z,1.80
2022-08-10T14:56:57.290Z,2.10
2022-08-10T15:00:08.591Z,2.03
2022-08-10T15:02:38.744Z,1.75
2022-08-10T15:05:08.939Z,1.88
2022-08-10T15:07:37.076Z,1.73
2022-08-10T15:10:05.795Z,1.95
2022-08-10T15:12:33.940Z,1.63
2022-08-10T15:15:01.961Z,1.95
2022-08-10T15:17:36.724Z,2.17
2022-08-10T15:20:13.651Z,2.00
2022-08-10T15:22:46.174Z,1.80
2022-08-10T15:25:18.142Z,1.80
2022-08-10T15:27:54.058Z,2.15
2022-08-10T15:30:30.514Z,1.98
2022-08-10T15:33:20.974Z,1.80
2022-08-10T15:36:24.080Z,1.70
2022-08-10T15:38:57.318Z,1.55
2022-08-10T15:41:59.217Z,1.90
2022-08-10T15:44:23.414Z,1.80
2022-08-10T15:46:52.084Z,1.63
2022-08-10T15:49:26.455Z,2.00
2022-08-10T15:52:05.379Z,2.00
2022-08-10T15:54:39.646Z,2.05
2022-08-10T15:57:12.012Z,2.00
2022-08-10T15:59:45.142Z,1.90
2022-08-10T16:02:20.619Z,2.10
2022-08-10T16:05:12.299Z,1.58
2022-08-10T16:07:49.432Z,1.60
2022-08-10T16:10:28.300Z,2.20
2022-08-10T16:13:01.008Z,1.80
2022-08-10T16:15:30.028Z,2.40
2022-08-10T16:18:12.909Z,2.00
2022-08-10T16:20:53.277Z,2.10
2022-08-10T16:23:36.075Z,2.00
2022-08-10T16:26:13.581Z,1.95
2022-08-10T16:28:51.790Z,2.05
2022-08-10T16:31:24.236Z,1.90
2022-08-10T16:33:57.544Z,1.60
2022-08-10T16:36:50.714Z,1.90
2022-08-10T16:40:00.266Z,1.83
2022-08-10T16:42:28.524Z,1.95
2022-08-10T16:45:05.435Z,2.20
2022-08-10T16:47:33.929Z,2.10
2022-08-10T16:50:05.577Z,2.15
2022-08-10T16:52:33.460Z,2.03
2022-08-10T16:55:17.218Z,1.95
2022-08-10T16:57:51.680Z,1.90
2022-08-10T17:00:22.449Z,1.98
2022-08-10T17:02:53.364Z,1.95
2022-08-10T17:06:01.589Z,2.03
2022-08-10T17:08:14.758Z,2.10
2022-08-10T17:10:42.914Z,2.03
2022-08-10T17:13:11.341Z,2.40
2022-08-10T17:15:43.867Z,2.65
2022-08-10T17:18:27.472Z,1.90
2022-08-10T17:21:00.319Z,2.20
2022-08-10T17:23:32.937Z,2.45
2022-08-10T17:26:02.276Z,2.00
2022-08-10T17:28:36.124Z,2.03
2022-08-10T17:31:54.511Z,2.10
2022-08-10T17:34:20.006Z,2.40
2022-08-10T17:36:48.887Z,2.00
2022-08-10T17:39:16.383Z,2.22
2022-08-10T17:41:48.623Z,1.88
2022-08-10T17:44:16.903Z,2.33
2022-08-10T17:46:45.337Z,1.80
2022-08-10T17:49:15.858Z,1.92
2022-08-10T17:51:46.152Z,2.20
2022-08-10T17:54:24.848Z,2.00
2022-08-10T17:56:52.949Z,2.00
2022-08-10T17:59:23.685Z,2.03
2022-08-10T18:01:58.689Z,2.30
2022-08-10T18:04:33.047Z,2.00
2022-08-10T18:07:07.910Z,2.20
2022-08-10T18:09:49.647Z,1.70
2022-08-10T18:12:30.899Z,1.90
2022-08-10T18:15:06.390Z,2.30
2022-08-10T18:17:42.316Z,1.90
2022-08-10T18:20:09.713Z,2.08
2022-08-10T18:22:40.290Z,1.80
2022-08-10T18:25:07.893Z,2.10
2022-08-10T18:27:46.509Z,2.40
2022-08-10T18:30:25.821Z,2.07
2022-08-10T18:32:55.966Z,2.03
2022-08-10T18:35:34.721Z,1.80
2022-08-10T18:38:03.613Z,2.00
2022-08-10T18:40:36.219Z,1.90
2022-08-10T18:43:08.567Z,2.20
2022-08-10T18:45:56.477Z,2.03
2022-08-10T18:48:31.658Z,2.40
2022-08-10T18:51:05.887Z,2.10
2022-08-10T18:53:48.143Z,2.17
2022-08-10T18:56:21.654Z,2.20
2022-08-10T18:59:03.151Z,2.37
2022-08-10T19:01:53.217Z,2.20
2022-08-10T19:04:41.436Z,2.10
2022-08-10T19:07:45.730Z,2.20
2022-08-10T19:10:13.729Z,2.33
2022-08-10T19:12:54.764Z,2.20
2022-08-10T19:15:42.574Z,2.40
2022-08-10T19:18:36.974Z,2.20
2022-08-10T19:21:18.819Z,2.30
2022-08-10T19:23:58.293Z,2.33
2022-08-10T19:26:47.008Z,2.30
2022-08-10T19:29:47.361Z,2.30
2022-08-10T19:32:06.971Z,2.00
2022-08-10T19:34:53.207Z,2.03
2022-08-10T19:37:32.749Z,2.30
2022-08-10T19:40:12.201Z,2.50
2022-08-10T19:42:41.619Z,2.70
2022-08-10T19:46:00.580Z,2.30
2022-08-10T19:48:10.000Z,2.23
2022-08-10T19:50:54.570Z,2.40
2022-08-10T19:53:29.846Z,2.70
2022-08-10T19:56:24.357Z,2.40
2022-08-10T19:59:09.734Z,2.60
2022-08-10T20:01:54.953Z,2.40
2022-08-10T20:04:29.559Z,2.80
2022-08-10T20:07:11.453Z,2.20
2022-08-10T20:09:52.273Z,2.57
2022-08-10T20:12:47.423Z,2.50
2022-08-10T20:15:41.938Z,2.50
2022-08-10T20:18:37.677Z,2.50
2022-08-10T20:21:12.915Z,2.23
2022-08-10T20:23:55.066Z,2.60
2022-08-10T20:26:27.919Z,2.33
2022-08-10T20:29:04.035Z,2.20
2022-08-10T20:31:40.914Z,2.43
2022-08-10T20:34:14.314Z,2.50
2022-08-10T20:36:48.287Z,2.70
2022-08-10T20:39:21.058Z,2.50
2022-08-10T20:42:03.743Z,2.50
2022-08-10T20:44:36.944Z,2.67
2022-08-10T20:47:14.440Z,2.20
2022-08-10T20:49:48.360Z,2.47
2022-08-10T20:52:15.560Z,2.50
2022-08-10T20:54:58.330Z,2.43
2022-08-10T20:57:56.891Z,2.60
2022-08-10T21:00:29.227Z,2.60
2022-08-10T21:03:25.142Z,2.40
2022-08-10T21:05:58.589Z,2.30
2022-08-10T21:08:30.099Z,2.40
2022-08-10T21:10:57.703Z,2.53
2022-08-10T21:13:24.715Z,2.50
2022-08-10T21:16:06.845Z,2.60
2022-08-10T21:18:52.644Z,2.53
2022-08-10T21:24:25.817Z,2.60
2022-08-10T21:25:42.097Z,2.53
2022-08-10T21:26:56.138Z,3.00
2022-08-10T21:29:42.261Z,2.70
2022-08-10T21:32:29.749Z,2.93
2022-08-10T21:35:20.339Z,2.50
2022-08-10T21:38:21.447Z,2.50
2022-08-10T21:41:18.402Z,2.70
2022-08-10T21:44:09.325Z,2.87
2022-08-10T21:47:03.527Z,2.40
2022-08-10T21:49:57.401Z,2.50
2022-08-10T21:53:04.409Z,2.63
2022-08-10T21:55:58.563Z,2.37
2022-08-10T21:58:56.511Z,2.90
2022-08-10T22:01:56.465Z,2.77
2022-08-10T22:04:45.454Z,2.30
2022-08-10T22:07:33.431Z,2.60
2022-08-10T22:10:22.495Z,2.83
2022-08-10T22:13:12.641Z,2.53
2022-08-10T22:16:11.187Z,2.30
2022-08-10T22:19:02.675Z,2.53
2022-08-10T22:21:59.861Z,2.40
2022-08-10T22:24:59.931Z,2.67
2022-08-10T22:27:50.909Z,2.60
2022-08-10T22:30:38.025Z,2.37
2022-08-10T22:33:39.766Z,2.30
2022-08-10T22:36:36.030Z,2.50
2022-08-10T22:40:12.210Z,2.50
2022-08-10T22:42:59.535Z,2.60
2022-08-10T22:45:48.393Z,2.60
2022-08-10T22:48:34.450Z,2.27
2022-08-10T22:51:06.510Z,2.60
2022-08-10T22:54:01.171Z,2.50
2022-08-10T22:56:46.972Z,2.30
2022-08-10T22:59:14.025Z,2.60
2022-08-10T23:02:08.888Z,2.77
2022-08-10T23:04:35.930Z,2.60
2022-08-10T23:07:30.143Z,2.37
2022-08-10T23:10:00.370Z,2.67
2022-08-10T23:12:35.581Z,2.30
2022-08-10T23:15:22.494Z,2.47
2022-08-10T23:18:09.899Z,2.30
2022-08-10T23:20:38.409Z,2.50
2022-08-10T23:23:09.687Z,2.30
2022-08-10T23:25:56.229Z,2.63
2022-08-10T23:28:58.285Z,2.43
2022-08-10T23:31:13.013Z,2.57
2022-08-10T23:33:40.918Z,3.00
2022-08-10T23:36:34.351Z,2.40
2022-08-10T23:39:24.121Z,2.30
2022-08-10T23:41:53.010Z,2.50
2022-08-10T23:44:21.209Z,2.50
2022-08-10T23:46:49.373Z,2.50
2022-08-10T23:49:17.013Z,2.23
2022-08-10T23:51:54.957Z,2.60
2022-08-10T23:54:24.510Z,2.30
2022-08-10T23:56:52.361Z,2.70
2022-08-10T23:59:23.066Z,2.10
